sensor_id;sensor_type;location;lat;lon;timestamp;pressure;altitude;pressure_sealevel;temperature;humidity
61898;BME280;47850;50.274;18.908;2023-03-01T00:01:33;99307.43;;;-3.78;78.59
61898;BME280;47850;50.274;18.908;2023-03-01T00:04:01;99308.70;;;-3.79;78.71
61898;BME280;47850;50.274;18.908;2023-03-01T00:06:29;99308.38;;;-3.79;78.70
61898;BME280;47850;50.274;18.908;2023-03-01T00:08:57;99306.86;;;-3.80;78.88
61898;BME280;47850;50.274;18.908;2023-03-01T00:11:28;99307.01;;;-3.81;78.97
61898;BME280;47850;50.274;18.908;2023-03-01T00:13:58;99306.85;;;-3.82;78.93
61898;BME280;47850;50.274;18.908;2023-03-01T00:16:28;99307.38;;;-3.83;79.16
61898;BME280;47850;50.274;18.908;2023-03-01T00:18:57;99307.60;;;-3.86;79.36
61898;BME280;47850;50.274;18.908;2023-03-01T00:21:26;99306.17;;;-3.85;79.29
61898;BME280;47850;50.274;18.908;2023-03-01T00:23:54;99304.49;;;-3.86;79.55
61898;BME280;47850;50.274;18.908;2023-03-01T00:26:24;99301.56;;;-3.88;79.45
61898;BME280;47850;50.274;18.908;2023-03-01T00:28:53;99298.64;;;-3.89;79.68
61898;BME280;47850;50.274;18.908;2023-03-01T00:31:25;99299.58;;;-3.90;79.43
61898;BME280;47850;50.274;18.908;2023-03-01T00:33:58;99297.08;;;-3.89;79.24
61898;BME280;47850;50.274;18.908;2023-03-01T00:36:27;99297.83;;;-3.90;79.08
61898;BME280;47850;50.274;18.908;2023-03-01T00:38:56;99301.30;;;-3.90;79.12
61898;BME280;47850;50.274;18.908;2023-03-01T00:41:24;99298.33;;;-3.91;79.21
61898;BME280;47850;50.274;18.908;2023-03-01T00:43:54;99302.38;;;-3.90;79.22
61898;BME280;47850;50.274;18.908;2023-03-01T00:46:25;99302.02;;;-3.89;79.34
61898;BME280;47850;50.274;18.908;2023-03-01T00:48:53;99299.39;;;-3.88;79.35
61898;BME280;47850;50.274;18.908;2023-03-01T00:51:24;99295.21;;;-3.87;79.00
61898;BME280;47850;50.274;18.908;2023-03-01T00:53:56;99294.55;;;-3.86;79.29
61898;BME280;47850;50.274;18.908;2023-03-01T00:56:25;99289.81;;;-3.85;79.08
61898;BME280;47850;50.274;18.908;2023-03-01T00:58:53;99291.34;;;-3.85;78.66
61898;BME280;47850;50.274;18.908;2023-03-01T01:01:23;99293.72;;;-3.82;78.90
61898;BME280;47850;50.274;18.908;2023-03-01T01:03:54;99285.23;;;-3.81;78.75
61898;BME280;47850;50.274;18.908;2023-03-01T01:06:32;99281.39;;;-3.80;78.44
61898;BME280;47850;50.274;18.908;2023-03-01T01:09:01;99279.51;;;-3.80;78.43
61898;BME280;47850;50.274;18.908;2023-03-01T01:11:30;99281.55;;;-3.79;78.23
61898;BME280;47850;50.274;18.908;2023-03-01T01:13:58;99283.86;;;-3.78;78.43
61898;BME280;47850;50.274;18.908;2023-03-01T01:16:28;99282.55;;;-3.79;78.23
61898;BME280;47850;50.274;18.908;2023-03-01T01:18:56;99281.71;;;-3.80;78.40
61898;BME280;47850;50.274;18.908;2023-03-01T01:21:25;99275.36;;;-3.82;78.32
61898;BME280;47850;50.274;18.908;2023-03-01T01:23:55;99276.84;;;-3.82;78.40
61898;BME280;47850;50.274;18.908;2023-03-01T01:26:26;99277.61;;;-3.83;78.53
61898;BME280;47850;50.274;18.908;2023-03-01T01:28:54;99278.51;;;-3.83;78.78
61898;BME280;47850;50.274;18.908;2023-03-01T01:31:23;99272.98;;;-3.84;78.47
61898;BME280;47850;50.274;18.908;2023-03-01T01:33:51;99265.54;;;-3.86;78.43
61898;BME280;47850;50.274;18.908;2023-03-01T01:36:20;99260.23;;;-3.89;78.57
61898;BME280;47850;50.274;18.908;2023-03-01T01:38:48;99265.48;;;-3.91;78.66
61898;BME280;47850;50.274;18.908;2023-03-01T01:41:17;99264.56;;;-3.92;78.71
61898;BME280;47850;50.274;18.908;2023-03-01T01:44:09;99261.98;;;-3.94;78.96
61898;BME280;47850;50.274;18.908;2023-03-01T01:46:39;99257.75;;;-3.96;78.88
61898;BME280;47850;50.274;18.908;2023-03-01T01:51:57;99248.63;;;-3.98;79.07
61898;BME280;47850;50.274;18.908;2023-03-01T01:54:32;99239.92;;;-4.01;78.80
61898;BME280;47850;50.274;18.908;2023-03-01T01:57:08;99235.65;;;-4.04;78.94
61898;BME280;47850;50.274;18.908;2023-03-01T01:59:37;99233.17;;;-4.07;78.72
61898;BME280;47850;50.274;18.908;2023-03-01T02:02:06;99236.27;;;-4.10;79.17
61898;BME280;47850;50.274;18.908;2023-03-01T02:04:34;99237.09;;;-4.12;79.40
61898;BME280;47850;50.274;18.908;2023-03-01T02:07:17;99234.50;;;-4.12;79.42
61898;BME280;47850;50.274;18.908;2023-03-01T02:09:47;99237.86;;;-4.14;79.30
61898;BME280;47850;50.274;18.908;2023-03-01T02:12:18;99236.73;;;-4.15;79.59
61898;BME280;47850;50.274;18.908;2023-03-01T02:14:47;99239.61;;;-4.15;79.77
61898;BME280;47850;50.274;18.908;2023-03-01T02:17:16;99234.20;;;-4.16;79.77
61898;BME280;47850;50.274;18.908;2023-03-01T02:22:36;99230.23;;;-4.20;79.59
61898;BME280;47850;50.274;18.908;2023-03-01T02:25:27;99232.20;;;-4.23;79.80
61898;BME280;47850;50.274;18.908;2023-03-01T02:28:44;99233.63;;;-4.25;79.99
61898;BME280;47850;50.274;18.908;2023-03-01T02:30:48;99234.91;;;-4.28;79.99
61898;BME280;47850;50.274;18.908;2023-03-01T02:33:37;99241.16;;;-4.31;79.99
61898;BME280;47850;50.274;18.908;2023-03-01T02:36:14;99244.34;;;-4.34;80.07
61898;BME280;47850;50.274;18.908;2023-03-01T02:38:44;99251.17;;;-4.35;80.46
61898;BME280;47850;50.274;18.908;2023-03-01T02:41:13;99256.48;;;-4.37;81.08
61898;BME280;47850;50.274;18.908;2023-03-01T02:43:42;99249.17;;;-4.40;80.65
61898;BME280;47850;50.274;18.908;2023-03-01T02:46:19;99245.79;;;-4.44;80.69
61898;BME280;47850;50.274;18.908;2023-03-01T02:48:50;99243.76;;;-4.48;81.15
61898;BME280;47850;50.274;18.908;2023-03-01T02:51:42;99238.30;;;-4.51;81.29
61898;BME280;47850;50.274;18.908;2023-03-01T02:54:28;99239.94;;;-4.52;81.53
61898;BME280;47850;50.274;18.908;2023-03-01T02:56:57;99235.96;;;-4.52;81.90
61898;BME280;47850;50.274;18.908;2023-03-01T02:59:30;99237.96;;;-4.53;82.14
61898;BME280;47850;50.274;18.908;2023-03-01T03:02:00;99239.77;;;-4.53;81.95
61898;BME280;47850;50.274;18.908;2023-03-01T03:04:28;99238.50;;;-4.52;82.00
61898;BME280;47850;50.274;18.908;2023-03-01T03:06:56;99241.60;;;-4.53;82.16
61898;BME280;47850;50.274;18.908;2023-03-01T03:09:23;99240.43;;;-4.55;82.24
61898;BME280;47850;50.274;18.908;2023-03-01T03:11:51;99245.91;;;-4.58;82.21
61898;BME280;47850;50.274;18.908;2023-03-01T03:14:19;99243.86;;;-4.57;82.09
61898;BME280;47850;50.274;18.908;2023-03-01T03:16:49;99238.67;;;-4.57;82.14
61898;BME280;47850;50.274;18.908;2023-03-01T03:19:19;99235.79;;;-4.58;82.10
61898;BME280;47850;50.274;18.908;2023-03-01T03:21:47;99235.69;;;-4.60;82.51
61898;BME280;47850;50.274;18.908;2023-03-01T03:24:15;99233.51;;;-4.62;82.45
61898;BME280;47850;50.274;18.908;2023-03-01T03:26:43;99227.17;;;-4.66;82.58
61898;BME280;47850;50.274;18.908;2023-03-01T03:29:10;99218.48;;;-4.67;82.46
61898;BME280;47850;50.274;18.908;2023-03-01T03:31:38;99217.09;;;-4.67;82.50
61898;BME280;47850;50.274;18.908;2023-03-01T03:34:06;99217.06;;;-4.66;82.65
61898;BME280;47850;50.274;18.908;2023-03-01T03:36:34;99217.66;;;-4.62;82.54
61898;BME280;47850;50.274;18.908;2023-03-01T03:39:01;99215.10;;;-4.60;82.35
61898;BME280;47850;50.274;18.908;2023-03-01T03:41:29;99209.16;;;-4.59;82.28
61898;BME280;47850;50.274;18.908;2023-03-01T03:43:57;99210.47;;;-4.58;81.98
61898;BME280;47850;50.274;18.908;2023-03-01T03:46:25;99207.98;;;-4.58;82.05
61898;BME280;47850;50.274;18.908;2023-03-01T03:48:53;99202.48;;;-4.58;82.02
61898;BME280;47850;50.274;18.908;2023-03-01T03:51:21;99204.82;;;-4.60;82.06
61898;BME280;47850;50.274;18.908;2023-03-01T03:53:50;99211.46;;;-4.63;81.98
61898;BME280;47850;50.274;18.908;2023-03-01T03:56:18;99211.94;;;-4.66;81.89
61898;BME280;47850;50.274;18.908;2023-03-01T03:58:45;99216.48;;;-4.67;82.16
61898;BME280;47850;50.274;18.908;2023-03-01T04:01:13;99216.41;;;-4.66;82.40
61898;BME280;47850;50.274;18.908;2023-03-01T04:03:41;99216.77;;;-4.67;82.77
61898;BME280;47850;50.274;18.908;2023-03-01T04:06:14;99215.34;;;-4.68;82.53
61898;BME280;47850;50.274;18.908;2023-03-01T04:08:42;99212.05;;;-4.70;82.57
61898;BME280;47850;50.274;18.908;2023-03-01T04:11:11;99214.86;;;-4.71;82.56
61898;BME280;47850;50.274;18.908;2023-03-01T04:13:56;99212.34;;;-4.73;82.32
61898;BME280;47850;50.274;18.908;2023-03-01T04:16:25;99215.44;;;-4.75;82.39
61898;BME280;47850;50.274;18.908;2023-03-01T04:18:53;99214.30;;;-4.75;82.42
61898;BME280;47850;50.274;18.908;2023-03-01T04:21:21;99212.22;;;-4.74;82.57
61898;BME280;47850;50.274;18.908;2023-03-01T04:23:49;99217.02;;;-4.72;82.67
61898;BME280;47850;50.274;18.908;2023-03-01T04:26:20;99218.52;;;-4.70;82.53
61898;BME280;47850;50.274;18.908;2023-03-01T04:28:48;99218.18;;;-4.69;82.53
61898;BME280;47850;50.274;18.908;2023-03-01T04:31:19;99215.65;;;-4.69;82.60
61898;BME280;47850;50.274;18.908;2023-03-01T04:33:51;99213.60;;;-4.69;82.60
61898;BME280;47850;50.274;18.908;2023-03-01T04:36:22;99208.36;;;-4.69;82.50
61898;BME280;47850;50.274;18.908;2023-03-01T04:38:50;99211.56;;;-4.69;82.69
61898;BME280;47850;50.274;18.908;2023-03-01T04:41:21;99207.52;;;-4.69;82.49
61898;BME280;47850;50.274;18.908;2023-03-01T04:43:50;99207.62;;;-4.70;82.65
61898;BME280;47850;50.274;18.908;2023-03-01T04:46:20;99205.84;;;-4.71;82.77
61898;BME280;47850;50.274;18.908;2023-03-01T04:48:48;99207.48;;;-4.73;82.82
61898;BME280;47850;50.274;18.908;2023-03-01T04:51:16;99208.45;;;-4.75;82.78
61898;BME280;47850;50.274;18.908;2023-03-01T04:53:44;99203.60;;;-4.77;82.75
61898;BME280;47850;50.274;18.908;2023-03-01T04:56:12;99200.27;;;-4.79;82.73
61898;BME280;47850;50.274;18.908;2023-03-01T04:58:44;99202.63;;;-4.81;82.74
61898;BME280;47850;50.274;18.908;2023-03-01T05:01:15;99197.80;;;-4.82;82.93
61898;BME280;47850;50.274;18.908;2023-03-01T05:03:49;99197.56;;;-4.84;82.78
61898;BME280;47850;50.274;18.908;2023-03-01T05:06:18;99191.45;;;-4.86;82.86
61898;BME280;47850;50.274;18.908;2023-03-01T05:08:46;99184.77;;;-4.88;82.92
61898;BME280;47850;50.274;18.908;2023-03-01T05:11:14;99183.97;;;-4.92;82.77
61898;BME280;47850;50.274;18.908;2023-03-01T05:13:42;99185.79;;;-4.93;82.80
61898;BME280;47850;50.274;18.908;2023-03-01T05:16:10;99187.38;;;-4.96;83.16
61898;BME280;47850;50.274;18.908;2023-03-01T05:18:39;99188.77;;;-4.99;83.42
61898;BME280;47850;50.274;18.908;2023-03-01T05:21:12;99188.52;;;-5.00;83.87
61898;BME280;47850;50.274;18.908;2023-03-01T05:23:44;99186.19;;;-5.01;84.07
61898;BME280;47850;50.274;18.908;2023-03-01T05:26:12;99184.10;;;-5.02;84.36
61898;BME280;47850;50.274;18.908;2023-03-01T05:28:40;99180.58;;;-5.02;84.16
61898;BME280;47850;50.274;18.908;2023-03-01T05:31:08;99179.15;;;-5.00;84.15
61898;BME280;47850;50.274;18.908;2023-03-01T05:33:37;99183.57;;;-5.00;83.89
61898;BME280;47850;50.274;18.908;2023-03-01T05:36:07;99179.97;;;-5.00;83.97
61898;BME280;47850;50.274;18.908;2023-03-01T05:38:35;99178.23;;;-4.99;84.07
61898;BME280;47850;50.274;18.908;2023-03-01T05:41:03;99178.16;;;-4.96;84.00
61898;BME280;47850;50.274;18.908;2023-03-01T05:43:31;99179.65;;;-4.94;84.00
61898;BME280;47850;50.274;18.908;2023-03-01T05:46:01;99184.80;;;-4.93;83.99
61898;BME280;47850;50.274;18.908;2023-03-01T05:48:29;99190.89;;;-4.90;84.07
61898;BME280;47850;50.274;18.908;2023-03-01T05:50:59;99190.51;;;-4.88;84.30
61898;BME280;47850;50.274;18.908;2023-03-01T05:53:27;99192.84;;;-4.82;84.34
61898;BME280;47850;50.274;18.908;2023-03-01T05:55:55;99196.73;;;-4.77;84.28
61898;BME280;47850;50.274;18.908;2023-03-01T05:58:23;99200.92;;;-4.73;84.11
61898;BME280;47850;50.274;18.908;2023-03-01T06:00:51;99203.36;;;-4.70;84.09
61898;BME280;47850;50.274;18.908;2023-03-01T06:03:19;99205.15;;;-4.67;84.20
61898;BME280;47850;50.274;18.908;2023-03-01T06:05:47;99208.53;;;-4.62;84.08
61898;BME280;47850;50.274;18.908;2023-03-01T06:08:15;99205.92;;;-4.59;83.92
61898;BME280;47850;50.274;18.908;2023-03-01T06:10:43;99203.49;;;-4.55;83.94
61898;BME280;47850;50.274;18.908;2023-03-01T06:13:10;99207.52;;;-4.52;83.75
61898;BME280;47850;50.274;18.908;2023-03-01T06:15:38;99206.36;;;-4.47;83.78
61898;BME280;47850;50.274;18.908;2023-03-01T06:18:06;99210.09;;;-4.41;83.56
61898;BME280;47850;50.274;18.908;2023-03-01T06:20:34;99212.63;;;-4.36;83.58
61898;BME280;47850;50.274;18.908;2023-03-01T06:23:01;99208.55;;;-4.32;83.43
61898;BME280;47850;50.274;18.908;2023-03-01T06:25:29;99207.29;;;-4.28;83.14
61898;BME280;47850;50.274;18.908;2023-03-01T06:27:57;99204.70;;;-4.23;83.32
61898;BME280;47850;50.274;18.908;2023-03-01T06:30:26;99213.58;;;-4.17;83.17
61898;BME280;47850;50.274;18.908;2023-03-01T06:32:54;99213.23;;;-4.12;83.24
61898;BME280;47850;50.274;18.908;2023-03-01T06:35:29;99215.32;;;-4.06;83.26
61898;BME280;47850;50.274;18.908;2023-03-01T06:37:59;99218.45;;;-3.98;83.27
61898;BME280;47850;50.274;18.908;2023-03-01T06:40:28;99216.68;;;-3.91;83.07
61898;BME280;47850;50.274;18.908;2023-03-01T06:42:56;99214.58;;;-3.86;82.89
61898;BME280;47850;50.274;18.908;2023-03-01T06:45:24;99211.80;;;-3.81;82.55
61898;BME280;47850;50.274;18.908;2023-03-01T06:47:52;99207.64;;;-3.75;82.23
61898;BME280;47850;50.274;18.908;2023-03-01T06:50:20;99212.13;;;-3.68;82.30
61898;BME280;47850;50.274;18.908;2023-03-01T06:52:55;99210.84;;;-3.61;82.08
61898;BME280;47850;50.274;18.908;2023-03-01T06:55:24;99214.99;;;-3.54;81.98
61898;BME280;47850;50.274;18.908;2023-03-01T06:57:56;99213.04;;;-3.45;81.87
61898;BME280;47850;50.274;18.908;2023-03-01T07:00:25;99212.23;;;-3.38;81.53
61898;BME280;47850;50.274;18.908;2023-03-01T07:02:53;99210.64;;;-3.31;81.22
61898;BME280;47850;50.274;18.908;2023-03-01T07:05:21;99206.30;;;-3.23;81.09
61898;BME280;47850;50.274;18.908;2023-03-01T07:07:49;99211.56;;;-3.14;80.85
61898;BME280;47850;50.274;18.908;2023-03-01T07:10:17;99209.31;;;-3.06;80.63
61898;BME280;47850;50.274;18.908;2023-03-01T07:12:44;99206.27;;;-2.98;80.26
61898;BME280;47850;50.274;18.908;2023-03-01T07:15:14;99205.62;;;-2.89;80.06
61898;BME280;47850;50.274;18.908;2023-03-01T07:17:42;99204.05;;;-2.81;79.75
61898;BME280;47850;50.274;18.908;2023-03-01T07:20:12;99203.40;;;-2.72;79.39
61898;BME280;47850;50.274;18.908;2023-03-01T07:22:40;99205.39;;;-2.63;79.43
61898;BME280;47850;50.274;18.908;2023-03-01T07:25:10;99197.53;;;-2.54;79.28
61898;BME280;47850;50.274;18.908;2023-03-01T07:27:38;99193.32;;;-2.45;79.31
61898;BME280;47850;50.274;18.908;2023-03-01T07:30:06;99191.61;;;-2.35;78.90
61898;BME280;47850;50.274;18.908;2023-03-01T07:32:34;99193.02;;;-2.25;78.43
61898;BME280;47850;50.274;18.908;2023-03-01T07:35:02;99192.20;;;-2.12;78.22
61898;BME280;47850;50.274;18.908;2023-03-01T07:37:30;99192.61;;;-2.00;77.87
61898;BME280;47850;50.274;18.908;2023-03-01T07:39:58;99187.83;;;-1.90;76.90
61898;BME280;47850;50.274;18.908;2023-03-01T07:42:26;99190.26;;;-1.81;76.52
61898;BME280;47850;50.274;18.908;2023-03-01T07:44:53;99183.34;;;-1.72;76.41
61898;BME280;47850;50.274;18.908;2023-03-01T07:47:21;99181.20;;;-1.64;76.13
61898;BME280;47850;50.274;18.908;2023-03-01T07:49:49;99183.55;;;-1.58;75.72
61898;BME280;47850;50.274;18.908;2023-03-01T07:52:17;99180.64;;;-1.54;75.50
61898;BME280;47850;50.274;18.908;2023-03-01T07:54:44;99181.73;;;-1.49;75.62
61898;BME280;47850;50.274;18.908;2023-03-01T07:57:13;99181.33;;;-1.45;75.82
61898;BME280;47850;50.274;18.908;2023-03-01T07:59:41;99179.33;;;-1.40;75.91
61898;BME280;47850;50.274;18.908;2023-03-01T08:02:10;99179.70;;;-1.36;76.06
61898;BME280;47850;50.274;18.908;2023-03-01T08:04:38;99178.10;;;-1.29;75.84
61898;BME280;47850;50.274;18.908;2023-03-01T08:07:06;99180.61;;;-1.24;75.58
61898;BME280;47850;50.274;18.908;2023-03-01T08:09:36;99178.14;;;-1.17;75.28
61898;BME280;47850;50.274;18.908;2023-03-01T08:12:05;99178.23;;;-1.08;75.11
61898;BME280;47850;50.274;18.908;2023-03-01T08:14:33;99179.02;;;-1.00;74.46
61898;BME280;47850;50.274;18.908;2023-03-01T08:17:01;99179.95;;;-0.92;73.99
61898;BME280;47850;50.274;18.908;2023-03-01T08:19:30;99175.68;;;-0.84;73.42
61898;BME280;47850;50.274;18.908;2023-03-01T08:21:58;99174.09;;;-0.77;72.97
61898;BME280;47850;50.274;18.908;2023-03-01T08:24:27;99174.01;;;-0.67;72.75
61898;BME280;47850;50.274;18.908;2023-03-01T08:26:55;99173.55;;;-0.59;72.07
61898;BME280;47850;50.274;18.908;2023-03-01T08:29:23;99172.20;;;-0.52;71.14
61898;BME280;47850;50.274;18.908;2023-03-01T08:31:52;99172.67;;;-0.47;70.51
61898;BME280;47850;50.274;18.908;2023-03-01T08:34:20;99173.98;;;-0.41;70.74
61898;BME280;47850;50.274;18.908;2023-03-01T08:36:47;99172.05;;;-0.34;70.49
61898;BME280;47850;50.274;18.908;2023-03-01T08:39:17;99168.06;;;-0.27;69.78
61898;BME280;47850;50.274;18.908;2023-03-01T08:41:46;99164.63;;;-0.20;69.52
61898;BME280;47850;50.274;18.908;2023-03-01T08:44:15;99161.29;;;-0.12;69.01
61898;BME280;47850;50.274;18.908;2023-03-01T08:46:47;99164.98;;;-0.07;68.07
61898;BME280;47850;50.274;18.908;2023-03-01T08:49:18;99162.98;;;0.00;68.41
61898;BME280;47850;50.274;18.908;2023-03-01T08:51:47;99163.63;;;0.08;68.11
61898;BME280;47850;50.274;18.908;2023-03-01T08:54:19;99160.38;;;0.16;67.23
61898;BME280;47850;50.274;18.908;2023-03-01T08:56:48;99159.69;;;0.23;66.44
61898;BME280;47850;50.274;18.908;2023-03-01T08:59:16;99157.35;;;0.32;66.52
61898;BME280;47850;50.274;18.908;2023-03-01T09:01:45;99157.09;;;0.41;66.26
61898;BME280;47850;50.274;18.908;2023-03-01T09:04:14;99161.40;;;0.51;66.40
61898;BME280;47850;50.274;18.908;2023-03-01T09:06:42;99161.58;;;0.61;65.12
61898;BME280;47850;50.274;18.908;2023-03-01T09:09:15;99157.10;;;0.68;63.60
61898;BME280;47850;50.274;18.908;2023-03-01T09:11:44;99152.20;;;0.75;64.02
61898;BME280;47850;50.274;18.908;2023-03-01T09:14:13;99147.88;;;0.82;63.85
61898;BME280;47850;50.274;18.908;2023-03-01T09:16:42;99149.36;;;0.90;63.45
61898;BME280;47850;50.274;18.908;2023-03-01T09:19:09;99155.14;;;0.98;63.66
61898;BME280;47850;50.274;18.908;2023-03-01T09:21:38;99152.95;;;1.06;63.03
61898;BME280;47850;50.274;18.908;2023-03-01T09:24:12;99153.57;;;1.14;62.88
61898;BME280;47850;50.274;18.908;2023-03-01T09:26:41;99152.66;;;1.22;62.93
61898;BME280;47850;50.274;18.908;2023-03-01T09:29:10;99155.98;;;1.30;62.44
61898;BME280;47850;50.274;18.908;2023-03-01T09:31:38;99157.06;;;1.38;62.33
61898;BME280;47850;50.274;18.908;2023-03-01T09:34:07;99156.69;;;1.45;61.92
61898;BME280;47850;50.274;18.908;2023-03-01T09:36:35;99150.91;;;1.51;61.52
61898;BME280;47850;50.274;18.908;2023-03-01T09:39:03;99147.21;;;1.57;60.49
61898;BME280;47850;50.274;18.908;2023-03-01T09:41:58;99152.59;;;1.65;60.92
61898;BME280;47850;50.274;18.908;2023-03-01T09:47:00;99154.34;;;1.82;59.98
61898;BME280;47850;50.274;18.908;2023-03-01T09:49:31;99150.95;;;1.90;59.64
61898;BME280;47850;50.274;18.908;2023-03-01T09:52:12;99147.84;;;1.98;59.25
61898;BME280;47850;50.274;18.908;2023-03-01T09:54:48;99144.68;;;2.05;57.98
61898;BME280;47850;50.274;18.908;2023-03-01T10:05:47;99142.96;;;2.28;56.61
61898;BME280;47850;50.274;18.908;2023-03-01T10:10:54;99139.63;;;2.45;56.26
61898;BME280;47850;50.274;18.908;2023-03-01T10:13:45;99135.00;;;2.55;55.94
61898;BME280;47850;50.274;18.908;2023-03-01T10:16:17;99133.56;;;2.69;55.87
61898;BME280;47850;50.274;18.908;2023-03-01T10:18:55;99132.25;;;2.78;54.31
61898;BME280;47850;50.274;18.908;2023-03-01T10:21:26;99132.12;;;2.86;54.88
61898;BME280;47850;50.274;18.908;2023-03-01T10:24:10;99128.77;;;2.99;55.30
61898;BME280;47850;50.274;18.908;2023-03-01T10:26:51;99130.10;;;3.17;54.98
61898;BME280;47850;50.274;18.908;2023-03-01T10:29:37;99129.02;;;3.28;53.29
61898;BME280;47850;50.274;18.908;2023-03-01T10:32:08;99130.75;;;3.35;53.03
61898;BME280;47850;50.274;18.908;2023-03-01T10:34:37;99128.39;;;3.45;52.78
61898;BME280;47850;50.274;18.908;2023-03-01T10:37:17;99125.23;;;3.54;52.61
61898;BME280;47850;50.274;18.908;2023-03-01T10:42:30;99120.39;;;3.69;51.16
61898;BME280;47850;50.274;18.908;2023-03-01T10:48:20;99123.55;;;3.88;50.48
61898;BME280;47850;50.274;18.908;2023-03-01T10:53:40;99116.06;;;4.09;49.26
61898;BME280;47850;50.274;18.908;2023-03-01T10:56:13;99107.38;;;4.14;49.77
61898;BME280;47850;50.274;18.908;2023-03-01T11:01:32;99109.31;;;4.42;49.22
61898;BME280;47850;50.274;18.908;2023-03-01T11:06:33;99100.40;;;4.65;49.05
61898;BME280;47850;50.274;18.908;2023-03-01T11:09:23;99094.90;;;4.74;49.02
61898;BME280;47850;50.274;18.908;2023-03-01T11:11:55;99089.48;;;4.85;48.29
61898;BME280;47850;50.274;18.908;2023-03-01T11:14:26;99092.89;;;4.94;48.17
61898;BME280;47850;50.274;18.908;2023-03-01T11:17:04;99088.11;;;5.05;48.05
61898;BME280;47850;50.274;18.908;2023-03-01T11:19:33;99084.96;;;5.13;47.40
61898;BME280;47850;50.274;18.908;2023-03-01T11:22:12;99080.55;;;5.24;47.74
61898;BME280;47850;50.274;18.908;2023-03-01T11:24:47;99075.98;;;5.40;46.90
61898;BME280;47850;50.274;18.908;2023-03-01T11:27:17;99074.99;;;5.76;46.71
61898;BME280;47850;50.274;18.908;2023-03-01T11:29:54;99071.17;;;6.12;46.20
61898;BME280;47850;50.274;18.908;2023-03-01T11:32:26;99068.69;;;6.57;46.40
61898;BME280;47850;50.274;18.908;2023-03-01T11:35:01;99067.41;;;6.99;44.01
61898;BME280;47850;50.274;18.908;2023-03-01T11:37:58;99067.13;;;7.32;43.39
61898;BME280;47850;50.274;18.908;2023-03-01T11:40:48;99065.58;;;7.69;42.76
61898;BME280;47850;50.274;18.908;2023-03-01T11:49:49;99073.38;;;8.93;41.07
61898;BME280;47850;50.274;18.908;2023-03-01T11:52:24;99072.50;;;9.42;40.18
61898;BME280;47850;50.274;18.908;2023-03-01T12:00:10;99053.02;;;10.52;38.26
61898;BME280;47850;50.274;18.908;2023-03-01T12:08:35;99044.70;;;11.65;36.33
61898;BME280;47850;50.274;18.908;2023-03-01T12:11:23;99040.10;;;11.91;35.16
61898;BME280;47850;50.274;18.908;2023-03-01T12:16:53;99033.29;;;12.56;34.78
61898;BME280;47850;50.274;18.908;2023-03-01T12:19:51;99036.48;;;12.79;32.60
61898;BME280;47850;50.274;18.908;2023-03-01T12:22:30;99035.16;;;13.11;32.80
61898;BME280;47850;50.274;18.908;2023-03-01T12:28:26;99030.19;;;13.99;31.53
61898;BME280;47850;50.274;18.908;2023-03-01T12:31:08;99028.30;;;14.32;29.84
61898;BME280;47850;50.274;18.908;2023-03-01T12:36:54;99018.59;;;14.64;30.47
61898;BME280;47850;50.274;18.908;2023-03-01T12:50:05;99009.55;;;16.17;27.69
61898;BME280;47850;50.274;18.908;2023-03-01T12:52:47;99000.58;;;16.74;27.20
61898;BME280;47850;50.274;18.908;2023-03-01T12:55:36;98998.67;;;17.17;26.35
61898;BME280;47850;50.274;18.908;2023-03-01T13:03:29;98980.23;;;18.45;25.50
61898;BME280;47850;50.274;18.908;2023-03-01T13:06:15;98985.41;;;19.16;25.02
61898;BME280;47850;50.274;18.908;2023-03-01T13:08:56;98978.57;;;19.89;24.63
61898;BME280;47850;50.274;18.908;2023-03-01T13:11:28;98978.02;;;20.43;22.76
61898;BME280;47850;50.274;18.908;2023-03-01T13:16:53;98977.74;;;20.70;22.84
61898;BME280;47850;50.274;18.908;2023-03-01T13:21:53;98978.34;;;20.98;21.97
61898;BME280;47850;50.274;18.908;2023-03-01T13:29:57;98978.45;;;22.23;20.57
61898;BME280;47850;50.274;18.908;2023-03-01T13:32:32;98979.25;;;22.31;20.65
61898;BME280;47850;50.274;18.908;2023-03-01T13:35:49;98979.23;;;22.54;21.07
61898;BME280;47850;50.274;18.908;2023-03-01T13:37:50;98972.09;;;22.86;20.46
61898;BME280;47850;50.274;18.908;2023-03-01T13:42:48;98970.61;;;23.72;19.75
61898;BME280;47850;50.274;18.908;2023-03-01T13:45:34;98968.87;;;23.98;19.41
61898;BME280;47850;50.274;18.908;2023-03-01T13:48:24;98964.52;;;24.25;18.73
61898;BME280;47850;50.274;18.908;2023-03-01T13:51:12;98961.13;;;24.57;17.96
61898;BME280;47850;50.274;18.908;2023-03-01T13:53:45;98960.30;;;24.79;18.02
61898;BME280;47850;50.274;18.908;2023-03-01T13:59:04;98959.92;;;24.89;16.96
61898;BME280;47850;50.274;18.908;2023-03-01T14:01:35;98959.35;;;24.82;16.16
61898;BME280;47850;50.274;18.908;2023-03-01T14:04:21;98955.52;;;24.47;16.24
61898;BME280;47850;50.274;18.908;2023-03-01T14:06:49;98947.38;;;24.40;16.40
61898;BME280;47850;50.274;18.908;2023-03-01T14:09:23;98943.91;;;24.55;16.42
61898;BME280;47850;50.274;18.908;2023-03-01T14:20:24;98945.02;;;25.47;16.50
61898;BME280;47850;50.274;18.908;2023-03-01T14:22:55;98943.02;;;25.78;16.35
61898;BME280;47850;50.274;18.908;2023-03-01T14:25:29;98938.21;;;26.14;15.96
61898;BME280;47850;50.274;18.908;2023-03-01T14:33:31;98929.58;;;26.20;14.90
61898;BME280;47850;50.274;18.908;2023-03-01T14:36:07;98924.43;;;26.03;15.22
61898;BME280;47850;50.274;18.908;2023-03-01T14:41:18;98918.59;;;26.25;14.75
61898;BME280;47850;50.274;18.908;2023-03-01T14:46:29;98916.52;;;26.52;14.68
61898;BME280;47850;50.274;18.908;2023-03-01T14:49:15;98911.75;;;26.60;14.44
61898;BME280;47850;50.274;18.908;2023-03-01T14:54:47;98909.29;;;26.34;14.42
61898;BME280;47850;50.274;18.908;2023-03-01T14:57:24;98914.29;;;26.52;14.00
61898;BME280;47850;50.274;18.908;2023-03-01T14:59:59;98913.73;;;26.39;13.93
61898;BME280;47850;50.274;18.908;2023-03-01T15:02:31;98913.57;;;26.24;13.94
61898;BME280;47850;50.274;18.908;2023-03-01T15:05:03;98913.07;;;26.12;14.15
61898;BME280;47850;50.274;18.908;2023-03-01T15:07:37;98911.87;;;26.13;14.11
61898;BME280;47850;50.274;18.908;2023-03-01T15:10:11;98907.83;;;26.02;14.35